Time;durP1;ratioP1;P1;durP2;ratioP2;P2;SDS_P1;SDS_P2;PMS_P1;PMS_P2;Temp;Humidity;BMP_temperature;BMP_pressure;BME280_temperature;BME280_humidity;BME280_pressure;Samples;Min_cycle;Max_cycle;Signal;HPM_P1;HPM_P2
2024/01/16 00:01:44;;;;;;;25.23;24.07;;;-1.20;99.90;;;;;;5080216;28;20155;-78
2024/01/16 00:04:11;;;;;;;26.50;25.10;;;-1.30;99.90;;;;;;5068411;28;20032;-78
2024/01/16 00:06:40;;;;;;;30.77;29.20;;;-1.40;99.90;;;;;;5089313;28;20493;-78
2024/01/16 00:09:07;;;;;;;31.13;29.52;;;-1.40;99.90;;;;;;5083280;28;20108;-78
2024/01/16 00:11:32;;;;;;;35.08;33.38;;;-1.50;99.90;;;;;;5086696;28;20036;-78
2024/01/16 00:13:58;;;;;;;26.47;24.90;;;-1.60;99.90;;;;;;5080991;28;20641;-78
2024/01/16 00:16:24;;;;;;;36.90;34.80;;;-1.60;99.90;;;;;;5067716;28;20036;-78
2024/01/16 00:18:49;;;;;;;42.67;40.40;;;-1.70;99.90;;;;;;5088638;28;20091;-78
2024/01/16 00:21:15;;;;;;;45.27;42.87;;;-1.70;99.90;;;;;;5061396;28;20063;-78
2024/01/16 00:23:41;;;;;;;41.13;39.00;;;-1.70;99.90;;;;;;5073775;28;20102;-78
2024/01/16 00:26:06;;;;;;;34.50;32.97;;;-1.70;99.90;;;;;;5083863;28;20604;-78
2024/01/16 00:28:32;;;;;;;77.43;73.23;;;-1.70;99.90;;;;;;5092883;28;20502;-78
2024/01/16 00:30:58;;;;;;;76.23;71.90;;;-1.70;99.90;;;;;;5062559;28;20044;-78
2024/01/16 00:33:24;;;;;;;54.50;51.53;;;-1.60;99.90;;;;;;5069206;28;20346;-78
2024/01/16 00:35:49;;;;;;;54.00;51.07;;;-1.60;99.90;;;;;;5060911;28;20040;-78
2024/01/16 00:38:15;;;;;;;86.00;81.27;;;-1.60;99.90;;;;;;5081160;28;20040;-79
2024/01/16 00:40:41;;;;;;;60.13;57.03;;;-1.50;99.90;;;;;;5080857;28;20445;-79
2024/01/16 00:43:07;;;;;;;39.80;37.60;;;-1.50;99.90;;;;;;5084308;28;20032;-78
2024/01/16 00:45:32;;;;;;;48.17;45.37;;;-1.50;99.90;;;;;;5072664;28;20450;-78
2024/01/16 00:47:58;;;;;;;38.27;35.97;;;-1.50;99.90;;;;;;5080529;28;20089;-78
2024/01/16 00:50:24;;;;;;;40.33;37.43;;;-1.40;99.90;;;;;;5066367;28;20036;-78
2024/01/16 00:52:50;;;;;;;28.13;25.70;;;-1.40;99.90;;;;;;5081855;28;20031;-78
2024/01/16 00:55:16;;;;;;;39.50;37.23;;;-1.40;99.90;;;;;;5076928;28;20036;-78
2024/01/16 00:57:41;;;;;;;28.47;26.67;;;-1.40;99.90;;;;;;5083899;28;20040;-77
2024/01/16 01:00:09;;;;;;;30.17;27.67;;;-1.40;99.90;;;;;;5088785;28;20051;-78
2024/01/16 01:02:35;;;;;;;44.53;41.80;;;-1.40;99.90;;;;;;5064585;28;20478;-78
2024/01/16 01:05:01;;;;;;;40.13;37.37;;;-1.50;99.90;;;;;;5076327;28;20038;-78
2024/01/16 01:07:27;;;;;;;43.03;40.47;;;-1.50;99.90;;;;;;5074819;28;20070;-78
2024/01/16 01:09:52;;;;;;;42.63;40.13;;;-1.50;99.90;;;;;;5073573;28;20393;-78
2024/01/16 01:12:18;;;;;;;50.63;47.73;;;-1.50;99.90;;;;;;5081966;28;20052;-77
2024/01/16 01:14:44;;;;;;;49.80;46.80;;;-1.50;99.90;;;;;;5085037;28;20041;-77
2024/01/16 01:17:09;;;;;;;56.70;53.33;;;-1.40;99.90;;;;;;5067826;28;20032;-78
2024/01/16 01:19:35;;;;;;;36.17;33.67;;;-1.40;99.90;;;;;;5066838;28;20600;-78
2024/01/16 01:22:01;;;;;;;32.67;30.23;;;-1.30;99.90;;;;;;5071424;28;20105;-78
2024/01/16 01:24:26;;;;;;;34.40;32.37;;;-1.30;99.90;;;;;;5066854;28;20089;-78
2024/01/16 01:26:52;;;;;;;39.27;37.20;;;-1.20;99.90;;;;;;5088750;28;20032;-78
2024/01/16 01:29:18;;;;;;;40.93;38.47;;;-1.30;99.90;;;;;;5082765;28;20046;-77
2024/01/16 01:31:50;;;;;;;34.63;32.27;;;-1.20;99.90;;;;;;5084008;28;20482;-78
2024/01/16 01:34:16;;;;;;;41.88;39.33;;;-1.20;99.90;;;;;;5056634;28;20045;-77
2024/01/16 01:36:43;;;;;;;34.83;32.63;;;-1.20;99.90;;;;;;5061976;28;20040;-78
2024/01/16 01:39:09;;;;;;;33.83;31.98;;;-1.20;99.90;;;;;;5082645;28;20451;-78
2024/01/16 01:41:34;;;;;;;36.40;34.35;;;-1.30;99.90;;;;;;5083396;28;20119;-78
2024/01/16 01:44:00;;;;;;;45.33;43.07;;;-1.30;99.90;;;;;;5070381;28;20173;-78
2024/01/16 01:46:27;;;;;;;107.87;101.27;;;-1.30;99.90;;;;;;5078616;28;20047;-78
2024/01/16 01:48:53;;;;;;;72.60;67.75;;;-1.20;99.90;;;;;;5085901;28;20098;-78
2024/01/16 01:51:19;;;;;;;41.53;38.87;;;-1.10;99.90;;;;;;5061880;28;20056;-78
2024/01/16 01:53:48;;;;;;;26.07;24.40;;;-1.00;99.90;;;;;;5065899;28;20291;-78
2024/01/16 01:56:21;;;;;;;34.58;32.72;;;-1.00;99.90;;;;;;5075615;28;20287;-78
2024/01/16 01:58:49;;;;;;;77.53;73.57;;;-1.00;99.90;;;;;;5077388;28;20116;-77
2024/01/16 02:01:17;;;;;;;44.10;41.55;;;-0.90;99.90;;;;;;5062071;28;20040;-78
2024/01/16 02:03:44;;;;;;;55.17;51.65;;;-0.90;99.90;;;;;;5065100;28;20473;-77
2024/01/16 02:06:12;;;;;;;30.60;28.92;;;-0.80;99.90;;;;;;5088627;28;20063;-77
2024/01/16 02:08:38;;;;;;;28.05;26.50;;;-0.80;99.90;;;;;;5080620;28;20039;-78
2024/01/16 02:11:04;;;;;;;32.50;30.27;;;-0.90;99.90;;;;;;5092402;28;20040;-78
2024/01/16 02:13:29;;;;;;;36.60;34.67;;;-1.00;99.90;;;;;;5088110;28;20393;-77
2024/01/16 02:15:55;;;;;;;32.60;30.63;;;-1.10;99.90;;;;;;5083991;28;20036;-78
2024/01/16 02:18:21;;;;;;;29.80;28.20;;;-1.20;99.90;;;;;;5089022;28;20055;-77
2024/01/16 02:20:47;;;;;;;38.20;35.80;;;-1.30;99.90;;;;;;5081988;28;20119;-77
2024/01/16 02:23:14;;;;;;;46.22;43.65;;;-1.40;99.90;;;;;;5063255;28;20047;-77
2024/01/16 02:25:42;;;;;;;38.22;35.92;;;-1.50;99.90;;;;;;5090341;28;20043;-78
2024/01/16 02:28:07;;;;;;;28.23;26.73;;;-1.50;99.90;;;;;;5080885;28;20075;-77
2024/01/16 02:30:33;;;;;;;27.93;26.10;;;-1.60;99.90;;;;;;5084294;28;20072;-77
2024/01/16 02:32:59;;;;;;;41.92;39.25;;;-1.70;99.90;;;;;;5080514;28;20069;-77
2024/01/16 02:35:25;;;;;;;32.33;30.47;;;-1.70;99.90;;;;;;5080179;28;20041;-77
2024/01/16 02:37:51;;;;;;;29.50;27.23;;;-1.70;99.90;;;;;;5064935;28;20051;-77
2024/01/16 02:40:16;;;;;;;42.03;39.53;;;-1.80;99.90;;;;;;5073031;28;20044;-77
2024/01/16 02:42:42;;;;;;;72.43;68.50;;;-1.80;99.90;;;;;;5079265;28;20111;-77
2024/01/16 02:45:08;;;;;;;33.77;31.87;;;-1.80;99.90;;;;;;5061513;28;20410;-77
2024/01/16 02:47:34;;;;;;;52.88;49.95;;;-1.80;99.90;;;;;;5054850;28;20060;-77
2024/01/16 02:50:00;;;;;;;34.23;31.93;;;-1.70;99.90;;;;;;5065291;28;20032;-77
2024/01/16 02:52:26;;;;;;;35.28;32.83;;;-1.70;99.90;;;;;;5062535;28;20608;-77
2024/01/16 02:54:51;;;;;;;38.30;36.20;;;-1.80;99.90;;;;;;5073029;28;20052;-77
2024/01/16 02:57:17;;;;;;;33.10;30.90;;;-1.80;99.90;;;;;;5083359;28;20048;-77
2024/01/16 02:59:44;;;;;;;41.80;39.37;;;-1.80;99.90;;;;;;5078258;28;20495;-77
2024/01/16 03:02:09;;;;;;;34.28;32.42;;;-1.80;99.90;;;;;;5078660;28;20114;-77
2024/01/16 03:04:35;;;;;;;54.87;51.57;;;-1.80;99.90;;;;;;5071386;28;20033;-77
2024/01/16 03:07:01;;;;;;;59.57;56.23;;;-1.80;99.90;;;;;;5060363;28;20028;-77
2024/01/16 03:09:27;;;;;;;43.63;41.23;;;-1.80;99.90;;;;;;5063722;28;20036;-77
2024/01/16 03:11:52;;;;;;;40.40;38.03;;;-1.70;99.90;;;;;;5057290;28;20037;-77
2024/01/16 03:14:18;;;;;;;40.17;37.87;;;-1.60;99.90;;;;;;5079247;28;20083;-77
2024/01/16 03:16:44;;;;;;;35.30;32.93;;;-1.60;99.90;;;;;;5062637;28;20044;-77
2024/01/16 03:19:12;;;;;;;38.65;36.55;;;-1.60;99.90;;;;;;5072303;28;20059;-77
2024/01/16 03:21:38;;;;;;;42.40;40.33;;;-1.60;99.90;;;;;;5070557;28;20044;-77
2024/01/16 03:24:05;;;;;;;39.53;36.90;;;-1.60;99.90;;;;;;5084451;28;20040;-77
2024/01/16 03:26:32;;;;;;;43.15;40.75;;;-1.60;99.90;;;;;;5062910;28;20060;-76
2024/01/16 03:28:58;;;;;;;36.45;34.28;;;-1.70;99.90;;;;;;5066465;28;20044;-77
2024/01/16 03:31:24;;;;;;;59.17;55.93;;;-1.70;99.90;;;;;;5059081;28;20101;-77
2024/01/16 03:33:50;;;;;;;44.37;41.47;;;-1.60;99.90;;;;;;5074513;28;20040;-77
2024/01/16 03:36:16;;;;;;;40.08;37.83;;;-1.60;99.90;;;;;;5076914;28;20093;-77
2024/01/16 03:38:44;;;;;;;42.95;40.55;;;-1.60;99.90;;;;;;5064348;28;20032;-75
2024/01/16 03:41:13;;;;;;;66.05;62.08;;;-1.60;99.90;;;;;;5058612;28;20044;-75
2024/01/16 03:43:40;;;;;;;49.35;46.17;;;-1.60;99.90;;;;;;5079207;28;20493;-75
2024/01/16 03:46:06;;;;;;;37.65;35.45;;;-1.60;99.90;;;;;;5063695;28;20035;-75
2024/01/16 03:48:32;;;;;;;36.10;34.00;;;-1.60;99.90;;;;;;5069931;28;20040;-76
2024/01/16 03:50:58;;;;;;;47.60;45.07;;;-1.60;99.90;;;;;;5061960;28;20040;-75
2024/01/16 03:53:24;;;;;;;63.50;59.73;;;-1.60;99.90;;;;;;5079259;28;20490;-75
2024/01/16 03:55:50;;;;;;;45.75;42.78;;;-1.60;99.90;;;;;;5067118;28;20069;-76
2024/01/16 03:58:16;;;;;;;61.20;57.95;;;-1.60;99.90;;;;;;5061662;28;20118;-75
2024/01/16 04:00:42;;;;;;;60.87;57.27;;;-1.60;99.90;;;;;;5084495;28;20547;-75
2024/01/16 04:03:08;;;;;;;40.45;38.10;;;-1.50;99.90;;;;;;5080919;28;20094;-77
2024/01/16 04:05:34;;;;;;;45.85;43.50;;;-1.50;99.90;;;;;;5066261;28;20067;-76
2024/01/16 04:08:00;;;;;;;38.05;35.90;;;-1.50;99.90;;;;;;5080020;28;20090;-75
2024/01/16 04:10:26;;;;;;;130.77;122.47;;;-1.50;99.90;;;;;;5068072;28;20547;-76
2024/01/16 04:12:52;;;;;;;78.47;73.77;;;-1.50;99.90;;;;;;5081306;28;20028;-76
2024/01/16 04:15:17;;;;;;;97.10;91.27;;;-1.50;99.90;;;;;;5078676;28;20051;-76
2024/01/16 04:17:43;;;;;;;60.67;57.27;;;-1.40;99.90;;;;;;5055339;28;20052;-76
2024/01/16 04:20:10;;;;;;;58.97;55.10;;;-1.40;99.90;;;;;;5066553;28;20037;-76
2024/01/16 04:22:36;;;;;;;159.32;148.23;;;-1.40;99.90;;;;;;5081523;28;20063;-75
2024/01/16 04:25:04;;;;;;;100.50;94.32;;;-1.30;99.90;;;;;;5058153;28;20036;-76
2024/01/16 04:27:31;;;;;;;83.45;78.43;;;-1.30;99.90;;;;;;5065718;28;20145;-76
2024/01/16 04:29:57;;;;;;;46.83;43.85;;;-1.20;99.90;;;;;;5071750;28;20501;-76
2024/01/16 04:32:22;;;;;;;63.57;59.63;;;-1.20;99.90;;;;;;5080068;28;20049;-77
2024/01/16 04:34:48;;;;;;;53.40;50.23;;;-1.20;99.90;;;;;;5084232;28;20052;-76
2024/01/16 04:37:14;;;;;;;36.63;34.07;;;-1.10;99.90;;;;;;5071942;28;20119;-76
2024/01/16 04:39:39;;;;;;;34.73;32.53;;;-1.10;99.90;;;;;;5067851;28;20071;-76
2024/01/16 04:42:05;;;;;;;54.47;51.27;;;-1.10;99.90;;;;;;5063381;28;20067;-76
2024/01/16 04:44:31;;;;;;;32.97;30.57;;;-1.00;99.90;;;;;;5075018;28;20029;-77
2024/01/16 04:46:56;;;;;;;52.03;48.77;;;-1.00;99.90;;;;;;5066525;28;20036;-76
2024/01/16 04:49:22;;;;;;;51.90;48.67;;;-0.90;99.90;;;;;;5062149;28;20063;-76
2024/01/16 04:51:48;;;;;;;87.33;82.07;;;-0.90;99.90;;;;;;5079511;28;20406;-76
2024/01/16 04:54:13;;;;;;;32.53;30.13;;;-0.90;99.90;;;;;;5080929;28;20048;-76
2024/01/16 04:56:39;;;;;;;29.77;27.63;;;-0.90;99.90;;;;;;5084101;28;20082;-76
2024/01/16 04:59:05;;;;;;;44.47;41.77;;;-0.90;99.90;;;;;;5084533;28;20082;-76
2024/01/16 05:01:31;;;;;;;56.20;52.80;;;-0.90;99.90;;;;;;5071919;28;20056;-76
2024/01/16 05:03:56;;;;;;;75.73;71.50;;;-1.00;99.90;;;;;;5068464;28;20850;-76
2024/01/16 05:06:22;;;;;;;38.77;36.13;;;-1.00;99.90;;;;;;5066571;28;20123;-76
2024/01/16 05:08:48;;;;;;;40.30;37.80;;;-1.00;99.90;;;;;;5088262;28;20043;-76
2024/01/16 05:11:14;;;;;;;41.75;39.25;;;-1.00;99.90;;;;;;5076432;28;20499;-76
2024/01/16 05:13:39;;;;;;;47.77;44.93;;;-1.00;99.90;;;;;;5065239;28;20124;-76
2024/01/16 05:16:05;;;;;;;42.27;39.10;;;-1.00;99.90;;;;;;5065518;28;20123;-76
2024/01/16 05:18:33;;;;;;;31.02;29.23;;;-1.00;99.90;;;;;;5063452;28;20052;-76
2024/01/16 05:20:59;;;;;;;45.30;42.20;;;-1.00;99.90;;;;;;5089087;28;20131;-76
2024/01/16 05:23:25;;;;;;;66.13;62.57;;;-1.00;99.90;;;;;;5089015;28;20170;-76
2024/01/16 05:25:50;;;;;;;64.30;60.90;;;-1.00;99.90;;;;;;5085632;28;20358;-76
2024/01/16 05:28:16;;;;;;;58.73;55.13;;;-1.00;99.90;;;;;;5084774;28;20028;-76
2024/01/16 05:30:42;;;;;;;35.07;33.20;;;-1.10;99.90;;;;;;5088716;28;20039;-76
2024/01/16 05:33:08;;;;;;;51.03;47.33;;;-1.10;99.90;;;;;;5091538;28;20050;-76
2024/01/16 05:35:34;;;;;;;59.13;55.70;;;-1.10;99.90;;;;;;5084057;28;20440;-76
2024/01/16 05:38:00;;;;;;;41.10;38.67;;;-1.10;99.90;;;;;;5067593;28;20044;-75
2024/01/16 05:40:26;;;;;;;37.00;34.87;;;-1.10;99.90;;;;;;5074516;28;20048;-76
2024/01/16 05:42:51;;;;;;;31.33;29.48;;;-1.10;99.90;;;;;;5081386;28;20107;-76
2024/01/16 05:45:18;;;;;;;36.37;34.20;;;-1.10;99.90;;;;;;5089447;28;20153;-75
2024/01/16 05:47:43;;;;;;;28.38;26.73;;;-1.10;99.90;;;;;;5069441;28;20509;-76
2024/01/16 05:50:09;;;;;;;35.90;33.53;;;-1.10;99.90;;;;;;5090428;28;20036;-76
2024/01/16 05:52:35;;;;;;;40.58;37.80;;;-1.10;99.90;;;;;;5086647;28;20108;-76
2024/01/16 05:55:02;;;;;;;33.55;31.30;;;-1.10;99.90;;;;;;5070480;28;20031;-76
2024/01/16 05:57:31;;;;;;;24.80;23.00;;;-1.10;99.90;;;;;;5082700;28;20461;-76
2024/01/16 05:59:57;;;;;;;42.33;39.67;;;-1.10;99.90;;;;;;5063695;28;20101;-76
2024/01/16 06:02:24;;;;;;;27.27;25.58;;;-1.20;99.90;;;;;;5062903;28;20032;-76
2024/01/16 06:04:49;;;;;;;32.15;30.10;;;-1.20;99.90;;;;;;5056920;28;20044;-76
2024/01/16 06:07:15;;;;;;;25.43;23.53;;;-1.20;99.90;;;;;;5074618;28;20063;-76
2024/01/16 06:09:41;;;;;;;26.17;24.60;;;-1.20;99.90;;;;;;5082225;28;20052;-76
2024/01/16 06:12:08;;;;;;;44.05;41.72;;;-1.10;99.90;;;;;;5085136;28;20056;-76
2024/01/16 06:14:34;;;;;;;29.83;28.05;;;-1.10;99.90;;;;;;5064622;28;20071;-76
2024/01/16 06:17:00;;;;;;;40.90;38.45;;;-1.10;99.90;;;;;;5070738;28;20051;-76
2024/01/16 06:19:27;;;;;;;31.35;29.33;;;-1.10;99.90;;;;;;5062810;28;20044;-76
2024/01/16 06:21:53;;;;;;;64.83;60.97;;;-1.10;99.90;;;;;;5073286;28;20121;-77
2024/01/16 06:24:19;;;;;;;37.10;34.43;;;-1.00;99.90;;;;;;5091316;28;20071;-76
2024/01/16 06:26:44;;;;;;;42.67;39.77;;;-0.90;99.90;;;;;;5080071;28;20754;-76
2024/01/16 06:29:10;;;;;;;36.83;34.23;;;-0.80;99.90;;;;;;5063385;28;20051;-75
2024/01/16 06:31:36;;;;;;;28.47;26.23;;;-0.80;99.90;;;;;;5070539;28;20044;-76
2024/01/16 06:34:02;;;;;;;28.23;26.47;;;-0.70;99.90;;;;;;5078649;28;20036;-76
2024/01/16 06:36:27;;;;;;;23.43;21.77;;;-0.70;99.90;;;;;;5064781;28;20486;-76
2024/01/16 06:38:53;;;;;;;37.47;35.03;;;-0.80;99.90;;;;;;5056770;28;20521;-76
2024/01/16 06:41:19;;;;;;;37.27;34.83;;;-0.80;99.90;;;;;;5062323;28;20100;-76
2024/01/16 06:43:45;;;;;;;31.47;29.10;;;-0.80;99.90;;;;;;5080944;28;20489;-76
2024/01/16 06:46:10;;;;;;;24.57;22.57;;;-0.90;99.90;;;;;;5072709;28;20040;-75
2024/01/16 06:48:39;;;;;;;24.10;22.17;;;-0.90;99.90;;;;;;5077619;28;20513;-76
2024/01/16 06:51:05;;;;;;;23.10;21.50;;;-0.90;99.90;;;;;;5059091;28;20056;-76
2024/01/16 06:53:31;;;;;;;29.17;27.23;;;-0.90;99.90;;;;;;5063490;28;20048;-77
2024/01/16 06:55:57;;;;;;;41.63;39.17;;;-1.00;99.90;;;;;;5058871;28;20047;-76
2024/01/16 06:58:22;;;;;;;36.37;34.30;;;-1.00;99.90;;;;;;5073752;28;20441;-76
2024/01/16 07:00:48;;;;;;;28.47;26.40;;;-1.00;99.90;;;;;;5060354;28;20048;-77
2024/01/16 07:03:14;;;;;;;25.53;23.87;;;-1.00;99.90;;;;;;5061088;28;20074;-76
2024/01/16 07:05:43;;;;;;;27.40;25.65;;;-1.00;99.90;;;;;;5075355;28;20282;-76
2024/01/16 07:08:09;;;;;;;23.75;22.05;;;-1.00;99.90;;;;;;5058214;28;20444;-77
2024/01/16 07:10:35;;;;;;;26.48;24.80;;;-1.00;99.90;;;;;;5075940;28;20386;-77
2024/01/16 07:13:02;;;;;;;46.90;43.63;;;-1.00;99.90;;;;;;5055245;28;20044;-76
2024/01/16 07:15:28;;;;;;;25.73;24.13;;;-1.00;99.90;;;;;;5069603;28;20076;-76
2024/01/16 07:17:53;;;;;;;44.83;42.00;;;-1.00;99.90;;;;;;5066629;28;20083;-77
2024/01/16 07:20:19;;;;;;;26.10;24.53;;;-1.00;99.90;;;;;;5069291;28;20048;-77
2024/01/16 07:22:46;;;;;;;17.95;16.65;;;-1.00;99.90;;;;;;5082151;28;20504;-76
2024/01/16 07:25:11;;;;;;;36.25;33.80;;;-1.00;99.90;;;;;;5089334;28;20554;-76
2024/01/16 07:27:37;;;;;;;27.27;25.17;;;-1.00;99.90;;;;;;5081875;28;20048;-76
2024/01/16 07:30:06;;;;;;;107.47;101.20;;;-1.00;99.90;;;;;;5080832;28;20425;-77
2024/01/16 07:32:33;;;;;;;51.17;48.22;;;-1.00;99.90;;;;;;5059734;28;20044;-76
2024/01/16 07:34:58;;;;;;;55.88;52.67;;;-1.00;99.90;;;;;;5064141;28;20561;-77
2024/01/16 07:37:24;;;;;;;55.57;52.30;;;-1.00;99.90;;;;;;5080798;28;20036;-76
2024/01/16 07:39:50;;;;;;;134.17;125.80;;;-0.90;99.90;;;;;;5062958;28;20530;-77
2024/01/16 07:42:16;;;;;;;135.00;127.23;;;-0.90;99.90;;;;;;5076038;28;20143;-77
2024/01/16 07:44:42;;;;;;;55.47;52.13;;;-0.80;99.90;;;;;;5074762;28;20050;-78
2024/01/16 07:47:07;;;;;;;106.47;100.10;;;-0.70;99.90;;;;;;5079572;28;20032;-77
2024/01/16 07:49:34;;;;;;;100.33;94.17;;;-0.60;99.90;;;;;;5060058;28;21411;-76
2024/01/16 07:52:00;;;;;;;126.20;118.70;;;-0.50;99.90;;;;;;5083160;28;20040;-77
2024/01/16 07:54:26;;;;;;;179.00;164.95;;;-0.40;99.90;;;;;;5059929;28;20036;-76
2024/01/16 07:56:51;;;;;;;191.77;178.17;;;-0.40;99.90;;;;;;5057426;28;20051;-77
2024/01/16 07:59:17;;;;;;;74.20;69.83;;;-0.40;99.90;;;;;;5072574;28;20795;-77
2024/01/16 08:01:43;;;;;;;104.67;98.30;;;-0.40;99.90;;;;;;5072596;28;20819;-76
2024/01/16 08:04:09;;;;;;;312.27;288.27;;;-0.40;99.90;;;;;;5057996;28;20398;-77
2024/01/16 08:06:35;;;;;;;118.00;110.93;;;-0.40;99.90;;;;;;5071774;28;20036;-77
2024/01/16 08:09:01;;;;;;;32.90;30.80;;;-0.40;99.90;;;;;;5074152;28;20074;-77
2024/01/16 08:11:27;;;;;;;44.57;42.20;;;-0.40;99.90;;;;;;5069990;28;20429;-76
2024/01/16 08:13:52;;;;;;;70.37;66.50;;;-0.40;99.90;;;;;;5057548;28;20486;-77
2024/01/16 08:16:18;;;;;;;74.00;69.93;;;-0.30;99.90;;;;;;5061247;28;20049;-76
2024/01/16 08:18:44;;;;;;;40.47;38.07;;;-0.30;99.90;;;;;;5079337;28;20132;-76
2024/01/16 08:21:09;;;;;;;52.63;50.03;;;-0.30;99.90;;;;;;5080615;28;20063;-76
2024/01/16 08:23:35;;;;;;;38.87;36.33;;;-0.30;99.90;;;;;;5084121;28;20040;-77
2024/01/16 08:26:01;;;;;;;36.10;34.33;;;-0.30;99.90;;;;;;5065325;28;20036;-77
2024/01/16 08:28:27;;;;;;;54.47;51.57;;;-0.30;99.90;;;;;;5083767;28;20110;-77
2024/01/16 08:30:52;;;;;;;48.90;46.42;;;-0.20;99.90;;;;;;5080349;28;20460;-77
2024/01/16 08:33:18;;;;;;;46.23;43.90;;;-0.20;99.90;;;;;;5081135;28;20058;-77
2024/01/16 08:35:44;;;;;;;112.53;105.65;;;-0.20;99.90;;;;;;5060919;28;20491;-76
2024/01/16 08:38:10;;;;;;;61.60;58.47;;;-0.20;99.90;;;;;;5082804;28;20047;-77
2024/01/16 08:40:36;;;;;;;81.07;76.50;;;-0.20;99.90;;;;;;5058418;28;20258;-77
2024/01/16 08:43:03;;;;;;;48.73;45.77;;;-0.20;99.90;;;;;;5080025;28;20362;-77
2024/01/16 08:45:29;;;;;;;39.08;36.63;;;-0.20;99.90;;;;;;5065485;28;20122;-76
2024/01/16 08:47:55;;;;;;;104.63;98.83;;;-0.20;99.90;;;;;;5058844;28;20601;-76
2024/01/16 08:50:20;;;;;;;81.17;76.77;;;-0.20;99.90;;;;;;5074555;28;20305;-77
2024/01/16 08:52:46;;;;;;;80.40;75.97;;;-0.30;99.90;;;;;;5071306;28;20043;-77
2024/01/16 08:55:12;;;;;;;36.20;34.23;;;-0.30;99.90;;;;;;5075674;28;20037;-77
2024/01/16 08:57:38;;;;;;;24.23;22.93;;;-0.30;99.90;;;;;;5072721;28;20044;-77
2024/01/16 09:00:05;;;;;;;100.70;93.23;;;-0.30;99.90;;;;;;5078093;28;20058;-76
2024/01/16 09:02:31;;;;;;;25.50;23.92;;;-0.30;99.90;;;;;;5053914;28;20347;-77
2024/01/16 09:04:58;;;;;;;56.67;53.77;;;-0.30;99.90;;;;;;5060667;28;20697;-76
2024/01/16 09:07:24;;;;;;;38.35;35.88;;;-0.20;99.90;;;;;;5054289;28;20040;-76
2024/01/16 09:09:50;;;;;;;62.45;58.90;;;-0.20;99.90;;;;;;5081481;28;20387;-77
2024/01/16 09:12:16;;;;;;;60.00;56.37;;;-0.10;99.90;;;;;;5077081;28;20063;-77
2024/01/16 09:14:42;;;;;;;88.17;82.93;;;0.00;99.90;;;;;;5053952;28;20127;-76
2024/01/16 09:17:07;;;;;;;102.53;96.10;;;0.10;99.90;;;;;;5072476;28;20036;-76
2024/01/16 09:19:33;;;;;;;132.10;123.27;;;0.20;99.90;;;;;;5083676;28;20471;-76
2024/01/16 09:21:59;;;;;;;36.70;34.70;;;0.30;99.90;;;;;;5062607;28;20146;-76
2024/01/16 09:24:24;;;;;;;141.43;132.30;;;0.40;99.90;;;;;;5069716;28;20039;-76
2024/01/16 09:26:50;;;;;;;74.00;69.40;;;0.40;99.90;;;;;;5069997;28;20780;-76
2024/01/16 09:29:16;;;;;;;33.77;31.97;;;0.40;99.90;;;;;;5076489;28;20032;-76
2024/01/16 09:31:42;;;;;;;104.90;99.30;;;0.40;99.90;;;;;;5059713;28;20403;-76
2024/01/16 09:34:08;;;;;;;49.90;46.95;;;0.50;99.90;;;;;;5055654;28;20040;-76
2024/01/16 09:36:36;;;;;;;37.65;35.42;;;0.50;99.90;;;;;;5077141;28;20044;-75
2024/01/16 09:39:07;;;;;;;40.10;38.13;;;0.50;99.90;;;;;;5054792;28;20117;-76
2024/01/16 09:41:37;;;;;;;43.60;41.40;;;0.60;99.90;;;;;;5076099;28;20080;-76
2024/01/16 09:44:03;;;;;;;53.60;50.75;;;0.70;99.90;;;;;;5085402;28;20064;-76
2024/01/16 09:46:31;;;;;;;92.90;88.22;;;0.80;99.90;;;;;;5074014;28;20074;-76
2024/01/16 09:48:58;;;;;;;42.00;39.60;;;0.90;99.90;;;;;;5057807;28;20033;-77
2024/01/16 09:51:24;;;;;;;38.47;36.33;;;1.00;99.90;;;;;;5078804;28;20048;-77
2024/01/16 09:53:51;;;;;;;56.70;53.30;;;0.90;99.90;;;;;;5077959;28;20120;-76
2024/01/16 09:56:20;;;;;;;38.10;35.90;;;0.90;99.90;;;;;;5067857;28;20048;-76
2024/01/16 09:58:49;;;;;;;114.97;108.65;;;0.90;99.90;;;;;;5079586;28;20031;-77
2024/01/16 10:01:16;;;;;;;60.58;57.40;;;0.80;99.90;;;;;;5072920;28;20037;-76
2024/01/16 10:03:45;;;;;;;36.33;34.45;;;0.70;99.90;;;;;;5078224;28;20037;-76
2024/01/16 10:06:11;;;;;;;91.72;86.20;;;0.60;99.90;;;;;;5074760;28;20032;-76
2024/01/16 10:08:38;;;;;;;62.88;59.33;;;0.60;99.90;;;;;;5070290;28;20052;-76
2024/01/16 10:11:04;;;;;;;101.85;95.40;;;0.50;99.90;;;;;;5082474;28;20121;-76
2024/01/16 10:13:32;;;;;;;72.40;68.53;;;0.40;99.90;;;;;;5080641;28;20493;-76
2024/01/16 10:15:59;;;;;;;51.60;48.53;;;0.30;99.90;;;;;;5055958;28;20040;-76
2024/01/16 10:18:33;;;;;;;79.90;75.35;;;0.20;99.90;;;;;;5078765;28;20106;-76
2024/01/16 10:21:00;;;;;;;34.10;32.13;;;0.10;99.90;;;;;;5075659;28;20547;-76
2024/01/16 10:23:36;;;;;;;52.03;49.15;;;0.00;99.90;;;;;;5076776;28;20491;-76
2024/01/16 10:26:10;;;;;;;58.25;54.88;;;0.00;99.90;;;;;;5077494;28;20070;-76
2024/01/16 10:28:38;;;;;;;26.38;24.90;;;0.00;99.90;;;;;;5073644;28;20115;-78
2024/01/16 10:31:09;;;;;;;42.20;39.92;;;-0.10;99.90;;;;;;5072702;28;20032;-76
2024/01/16 10:33:39;;;;;;;49.63;46.67;;;0.00;99.90;;;;;;5087683;28;20050;-76
2024/01/16 10:36:20;;;;;;;41.97;39.80;;;0.00;99.90;;;;;;5067653;28;20036;-77
2024/01/16 10:38:46;;;;;;;33.55;31.52;;;0.10;99.90;;;;;;5057317;28;20032;-76
2024/01/16 10:41:17;;;;;;;59.55;56.22;;;0.20;99.90;;;;;;5071917;28;20045;-77
2024/01/16 10:43:44;;;;;;;114.13;106.53;;;0.30;99.90;;;;;;5069424;28;20044;-76
2024/01/16 10:46:16;;;;;;;140.32;131.40;;;0.40;99.90;;;;;;5082346;28;20089;-76
2024/01/16 10:49:00;;;;;;;82.28;78.03;;;0.40;99.90;;;;;;5063704;28;20032;-77
2024/01/16 10:51:27;;;;;;;107.43;101.35;;;0.50;99.90;;;;;;5072013;28;20040;-77
2024/01/16 10:54:09;;;;;;;56.78;53.60;;;0.50;99.90;;;;;;5071661;28;20435;-77
2024/01/16 10:56:36;;;;;;;59.83;56.67;;;0.50;99.90;;;;;;5078222;28;20486;-76
2024/01/16 10:59:19;;;;;;;105.13;98.82;;;0.50;99.90;;;;;;5062782;28;20040;-77
2024/01/16 11:01:49;;;;;;;32.05;29.98;;;0.50;99.90;;;;;;5072249;28;20070;-77
2024/01/16 11:04:15;;;;;;;34.67;32.70;;;0.60;99.90;;;;;;5089641;28;20082;-77
2024/01/16 11:06:42;;;;;;;42.00;39.63;;;0.60;99.90;;;;;;5089589;28;20067;-77
2024/01/16 11:09:08;;;;;;;67.53;63.92;;;0.70;99.90;;;;;;5083687;28;20458;-77
2024/01/16 11:11:37;;;;;;;66.68;62.75;;;0.80;99.90;;;;;;5087063;28;20046;-77
2024/01/16 11:14:03;;;;;;;87.32;82.72;;;0.80;99.90;;;;;;5085027;28;20043;-76
2024/01/16 11:16:32;;;;;;;52.35;49.38;;;0.80;99.90;;;;;;5085030;28;20133;-77
2024/01/16 11:18:58;;;;;;;38.35;36.17;;;0.80;99.90;;;;;;5065540;28;20080;-77
2024/01/16 11:21:25;;;;;;;54.80;52.03;;;0.80;99.90;;;;;;5080422;28;20043;-76
2024/01/16 11:23:52;;;;;;;58.88;55.85;;;0.80;99.90;;;;;;5070571;28;20044;-77
2024/01/16 11:26:33;;;;;;;51.00;47.80;;;0.90;99.90;;;;;;5077227;28;20094;-77
2024/01/16 11:29:00;;;;;;;54.40;51.15;;;0.90;99.90;;;;;;5056943;28;20375;-77
2024/01/16 11:31:34;;;;;;;50.33;47.60;;;0.90;99.90;;;;;;5059544;28;20058;-77
2024/01/16 11:34:02;;;;;;;47.03;44.03;;;1.00;99.90;;;;;;5078553;28;20048;-77
2024/01/16 11:36:47;;;;;;;26.77;25.17;;;1.00;99.90;;;;;;5090151;28;20457;-76
2024/01/16 11:39:24;;;;;;;119.28;112.30;;;1.00;99.90;;;;;;5064953;28;20040;-77
2024/01/16 11:42:02;;;;;;;141.60;131.52;;;1.00;99.90;;;;;;5069358;28;20070;-76
2024/01/16 11:44:37;;;;;;;62.72;58.63;;;0.90;99.90;;;;;;5065730;28;20058;-77
2024/01/16 11:47:07;;;;;;;68.85;65.03;;;0.90;99.90;;;;;;5067702;28;20090;-78
2024/01/16 11:49:33;;;;;;;75.68;71.35;;;0.80;99.90;;;;;;5080505;28;20048;-78
2024/01/16 11:51:59;;;;;;;75.73;71.37;;;0.80;99.90;;;;;;5070649;28;20051;-78
2024/01/16 11:54:26;;;;;;;76.82;71.97;;;0.80;99.90;;;;;;5087889;28;20044;-77
2024/01/16 11:57:24;;;;;;;71.30;66.97;;;0.80;99.90;;;;;;5085121;28;20447;-77
2024/01/16 12:00:12;;;;;;;71.78;67.68;;;0.70;99.90;;;;;;5067585;28;20047;-77
2024/01/16 12:02:43;;;;;;;63.78;59.88;;;0.70;99.90;;;;;;5081456;28;20089;-77
2024/01/16 12:05:11;;;;;;;49.15;46.33;;;0.60;99.90;;;;;;5061956;28;20102;-77
2024/01/16 12:08:03;;;;;;;65.32;61.47;;;0.60;99.90;;;;;;5082713;28;20127;-78
2024/01/16 12:10:29;;;;;;;54.80;51.47;;;0.70;99.90;;;;;;5069529;28;20566;-77
2024/01/16 12:12:59;;;;;;;31.10;29.17;;;0.80;99.90;;;;;;5085298;28;20070;-77
2024/01/16 12:15:26;;;;;;;67.32;63.25;;;0.80;99.90;;;;;;5063506;28;20037;-77
2024/01/16 12:18:03;;;;;;;68.22;63.70;;;0.90;99.90;;;;;;5089275;28;20154;-77
2024/01/16 12:20:33;;;;;;;28.95;26.95;;;1.00;99.90;;;;;;5088691;28;20044;-76
2024/01/16 12:23:01;;;;;;;59.95;56.25;;;1.10;99.90;;;;;;5082378;28;20086;-76
2024/01/16 12:25:28;;;;;;;104.50;98.43;;;1.10;99.90;;;;;;5084577;28;20032;-77
2024/01/16 12:28:01;;;;;;;108.03;101.63;;;1.20;99.90;;;;;;5079614;28;20060;-77